Terminal Aerodrome Forecast
Issued by NWS Jackson, MS

Home | Current Version | Previous Version | Text Only | Print | Product List | Glossary On
Versions: 1 2 3 4 5 6 7 8 9 10 11 12 13 14 15 16 17
000
FTUS44 KMEG 190524
TAFTUP
TAF
KTUP 190524Z 1906/2006 17008KT 6SM BR OVC003
      TEMPO 1906/1910 2SM -DZ BR VV002
     FM191200 18007KT P6SM BKN008
     FM191600 20011KT P6SM BKN012
     FM191900 20015G22KT P6SM BKN025
     FM192100 20011G19KT P6SM SCT035 BKN200
     FM200200 19010KT P6SM SCT025 BKN200=

USA.gov is the U.S. government's official web portal to all federal, state and local government web resources and services.